Time;durP1;ratioP1;P1;durP2;ratioP2;P2;SDS_P1;SDS_P2;PMS_P1;PMS_P2;Temp;Humidity;BMP_temperature;BMP_pressure;BME280_temperature;BME280_humidity;BME280_pressure;Samples;Min_cycle;Max_cycle;Signal;HPM_P1;HPM_P2
2023/06/05 00:00:33;;;;;;;9.27;3.70;;;;;;;-140.66;100.00;55571.53;5116440;28;20479;-75
2023/06/05 00:03:19;;;;;;;8.10;3.97;;;;;;;-140.66;100.00;55571.53;5102453;28;20031;-75
2023/06/05 00:06:06;;;;;;;10.40;3.90;;;;;;;-140.66;100.00;55571.53;5116024;28;20027;-75
2023/06/05 00:08:52;;;;;;;8.35;4.00;;;;;;;-140.66;100.00;55571.53;5100729;28;20023;-75
2023/06/05 00:11:37;;;;;;;7.28;4.20;;;;;;;-140.66;100.00;55571.53;5104707;28;20059;-76
2023/06/05 00:14:23;;;;;;;8.05;3.92;;;;;;;-140.66;100.00;55571.53;5080830;28;20020;-75
2023/06/05 00:17:09;;;;;;;6.57;4.10;;;;;;;-140.66;100.00;55571.53;5096495;28;20020;-75
2023/06/05 00:19:54;;;;;;;7.80;3.80;;;;;;;-140.66;100.00;55571.53;5095618;28;20024;-74
2023/06/05 00:22:40;;;;;;;5.43;3.70;;;;;;;-140.66;100.00;55571.53;5096454;28;20364;-75
2023/06/05 00:25:26;;;;;;;5.22;3.80;;;;;;;-140.66;100.00;55571.53;5095174;28;20499;-75
2023/06/05 00:28:12;;;;;;;5.85;3.40;;;;;;;-140.66;100.00;55571.53;5079384;28;20031;-75
2023/06/05 00:30:58;;;;;;;7.20;3.65;;;;;;;-140.66;100.00;55571.53;5096119;28;20043;-75
2023/06/05 00:33:43;;;;;;;8.02;4.40;;;;;;;-140.66;100.00;55571.53;5094720;28;20032;-75
2023/06/05 00:36:29;;;;;;;7.32;4.38;;;;;;;-140.66;100.00;55571.53;5096237;28;20027;-75
2023/06/05 00:39:15;;;;;;;8.85;4.50;;;;;;;-140.66;100.00;55571.53;5094423;28;20131;-75
2023/06/05 00:42:01;;;;;;;7.53;4.55;;;;;;;-140.66;100.00;55571.53;5094643;28;20458;-76
2023/06/05 00:44:48;;;;;;;10.15;5.38;;;;;;;-140.66;100.00;55571.53;5096344;28;20467;-75
2023/06/05 00:47:34;;;;;;;10.73;5.20;;;;;;;-140.66;100.00;55571.53;5094311;28;20070;-75
2023/06/05 00:50:21;;;;;;;7.53;4.82;;;;;;;-140.66;100.00;55571.53;5094101;28;20077;-75
2023/06/05 00:53:07;;;;;;;7.85;5.00;;;;;;;-140.66;100.00;55571.53;5096030;28;20441;-75
2023/06/05 00:55:53;;;;;;;10.23;5.30;;;;;;;-140.66;100.00;55571.53;5094473;28;20024;-75
2023/06/05 00:58:39;;;;;;;6.47;5.00;;;;;;;-140.66;100.00;55571.53;5079146;28;20023;-76
2023/06/05 01:01:28;;;;;;;11.48;5.22;;;;;;;-140.66;100.00;55571.53;5093984;28;20024;-74
2023/06/05 01:04:14;;;;;;;7.13;5.38;;;;;;;-140.66;100.00;55571.53;5079983;28;20024;-75
2023/06/05 01:07:01;;;;;;;9.38;5.65;;;;;;;-140.66;100.00;55571.53;5096128;28;20020;-76
2023/06/05 01:09:46;;;;;;;10.93;5.30;;;;;;;-140.66;100.00;55571.53;5095886;28;20036;-75
2023/06/05 01:12:46;;;;;;;13.05;6.47;;;;;;;-140.66;100.00;55571.53;5095655;28;20051;-76
2023/06/05 01:15:33;;;;;;;9.57;5.80;;;;;;;-140.66;100.00;55571.53;5116023;28;20088;-76
2023/06/05 01:18:19;;;;;;;8.15;6.03;;;;;;;-140.66;100.00;55571.53;5116325;28;20032;-75
2023/06/05 01:21:13;;;;;;;13.98;6.28;;;;;;;-140.66;100.00;55571.53;5114767;28;20035;-75
2023/06/05 01:23:59;;;;;;;11.23;6.00;;;;;;;-140.66;100.00;55571.53;5100429;28;20030;-75
2023/06/05 01:27:08;;;;;;;9.07;6.10;;;;;;;-140.66;100.00;55571.53;5115131;28;20108;-76
2023/06/05 01:30:02;;;;;;;11.05;6.43;;;;;;;-140.66;100.00;55571.53;5099818;28;20027;-75
2023/06/05 01:32:56;;;;;;;8.40;5.85;;;;;;;-140.66;100.00;55571.53;5115125;28;20516;-76
2023/06/05 01:35:45;;;;;;;10.77;5.72;;;;;;;-140.66;100.00;55571.53;5115680;28;20688;-75
2023/06/05 01:38:35;;;;;;;12.77;6.32;;;;;;;-140.66;100.00;55571.53;5099938;28;20031;-76
2023/06/05 01:41:21;;;;;;;8.88;6.07;;;;;;;-140.66;100.00;55571.53;5100709;28;20034;-76
2023/06/05 01:44:08;;;;;;;8.57;5.75;;;;;;;-140.66;100.00;55571.53;5099803;28;20020;-77
2023/06/05 01:46:54;;;;;;;9.48;6.10;;;;;;;-140.66;100.00;55571.53;5115234;28;20515;-75
2023/06/05 01:49:40;;;;;;;9.88;6.20;;;;;;;-140.66;100.00;55571.53;5115151;28;20366;-76
2023/06/05 01:52:26;;;;;;;8.70;6.13;;;;;;;-140.66;100.00;55571.53;5114683;28;20023;-75
2023/06/05 01:55:16;;;;;;;10.32;5.75;;;;;;;-140.66;100.00;55571.53;5115207;28;20059;-75
2023/06/05 01:58:02;;;;;;;9.45;6.13;;;;;;;-140.66;100.00;55571.53;5119004;28;20027;-75
2023/06/05 02:00:47;;;;;;;11.35;6.18;;;;;;;-140.66;100.00;55571.53;5126211;28;20024;-75
2023/06/05 02:03:33;;;;;;;10.70;5.95;;;;;;;-140.66;100.00;55571.53;5113199;28;20020;-75
2023/06/05 02:06:19;;;;;;;8.25;5.80;;;;;;;-140.66;100.00;55571.53;5119870;28;20376;-75
2023/06/05 02:09:05;;;;;;;10.73;6.43;;;;;;;-140.66;100.00;55571.53;5115573;28;20110;-75
2023/06/05 02:11:53;;;;;;;9.52;6.10;;;;;;;-140.66;100.00;55571.53;5099387;28;20126;-76
2023/06/05 02:14:38;;;;;;;8.85;5.80;;;;;;;-140.66;100.00;55571.53;5099331;28;20035;-75
2023/06/05 02:17:24;;;;;;;8.05;6.22;;;;;;;-140.66;100.00;55571.53;5115366;28;20061;-76
2023/06/05 02:20:15;;;;;;;11.45;6.28;;;;;;;-140.66;100.00;55571.53;5114604;28;20020;-75
2023/06/05 02:23:01;;;;;;;8.75;6.05;;;;;;;-140.66;100.00;55571.53;5114233;28;20019;-75
2023/06/05 02:25:46;;;;;;;9.77;5.85;;;;;;;-140.66;100.00;55571.53;5119588;28;20084;-75
2023/06/05 02:28:32;;;;;;;8.18;5.72;;;;;;;-140.66;100.00;55571.53;5119061;28;20135;-75
2023/06/05 02:31:18;;;;;;;11.45;5.93;;;;;;;-140.66;100.00;55571.53;5118886;28;20023;-76
2023/06/05 02:34:03;;;;;;;11.85;6.03;;;;;;;-140.66;100.00;55571.53;5118784;28;20459;-76
2023/06/05 02:36:49;;;;;;;11.50;6.68;;;;;;;-140.66;100.00;55571.53;5118712;28;20027;-76
2023/06/05 02:39:35;;;;;;;8.68;6.05;;;;;;;-140.66;100.00;55571.53;5118718;28;20031;-75
2023/06/05 02:42:21;;;;;;;8.93;6.20;;;;;;;-140.66;100.00;55571.53;5119137;28;20409;-75
2023/06/05 02:45:08;;;;;;;11.82;6.65;;;;;;;-140.66;100.00;55571.53;5103815;28;20027;-75
2023/06/05 02:47:54;;;;;;;9.98;6.00;;;;;;;-140.66;100.00;55571.53;5118155;28;20119;-75
2023/06/05 02:50:39;;;;;;;16.13;6.32;;;;;;;-140.66;100.00;55571.53;5118760;28;20110;-76
2023/06/05 02:53:25;;;;;;;11.13;6.10;;;;;;;-140.66;100.00;55571.53;5119127;28;20043;-75
2023/06/05 02:56:13;;;;;;;7.85;5.75;;;;;;;-140.66;100.00;55571.53;5103307;28;20023;-75
2023/06/05 02:59:02;;;;;;;8.68;6.28;;;;;;;-140.66;100.00;55571.53;5117682;28;20428;-75
2023/06/05 03:01:49;;;;;;;17.80;6.20;;;;;;;-140.66;100.00;55571.53;5118297;28;20438;-76
2023/06/05 03:04:36;;;;;;;9.65;6.00;;;;;;;-140.66;100.00;55571.53;5117191;28;20455;-76
2023/06/05 03:07:22;;;;;;;12.82;6.50;;;;;;;-140.66;100.00;55571.53;5102985;28;20107;-75
2023/06/05 03:10:09;;;;;;;9.73;5.80;;;;;;;-140.66;100.00;55571.53;5102937;28;20457;-75
2023/06/05 03:12:55;;;;;;;9.02;5.60;;;;;;;-140.66;100.00;55571.53;5118136;28;20044;-76
2023/06/05 03:15:42;;;;;;;9.82;5.90;;;;;;;-140.66;100.00;55571.53;5118279;28;20077;-75
2023/06/05 03:18:28;;;;;;;8.80;5.88;;;;;;;-140.66;100.00;55571.53;5118632;28;20106;-75
2023/06/05 03:21:14;;;;;;;9.40;5.93;;;;;;;-140.66;100.00;55571.53;5117854;28;20035;-75
2023/06/05 03:24:00;;;;;;;13.88;6.35;;;;;;;-140.66;100.00;55571.53;5118180;28;20030;-75
2023/06/05 03:26:46;;;;;;;8.82;5.47;;;;;;;-140.66;100.00;55571.53;5117920;28;20031;-74
2023/06/05 03:29:32;;;;;;;12.13;5.93;;;;;;;-140.66;100.00;55571.53;5117743;28;20036;-75
2023/06/05 03:32:17;;;;;;;10.10;5.63;;;;;;;-140.66;100.00;55571.53;5117113;28;20023;-74
2023/06/05 03:35:04;;;;;;;11.20;5.80;;;;;;;-140.66;100.00;55571.53;5117415;28;20348;-74
2023/06/05 03:37:49;;;;;;;11.50;5.70;;;;;;;-140.66;100.00;55571.53;5118020;28;20065;-75
2023/06/05 03:40:38;;;;;;;7.90;5.38;;;;;;;-140.66;100.00;55571.53;5102252;28;20035;-75
2023/06/05 03:43:24;;;;;;;12.63;5.93;;;;;;;-140.66;100.00;55571.53;5116695;28;20051;-76
2023/06/05 03:46:18;;;;;;;13.05;6.07;;;;;;;-140.66;100.00;55571.53;5102724;28;20425;-73
2023/06/05 03:49:08;;;;;;;13.65;6.70;;;;;;;-140.66;100.00;55571.53;5117838;28;20024;-74
2023/06/05 03:52:00;;;;;;;9.30;5.05;;;;;;;-140.66;100.00;55571.53;5116436;28;20019;-76
2023/06/05 03:54:46;;;;;;;12.20;5.85;;;;;;;-140.66;100.00;55571.53;5117198;28;20031;-75
2023/06/05 03:57:32;;;;;;;15.88;6.07;;;;;;;-140.66;100.00;55571.53;5117821;28;20027;-75
2023/06/05 04:00:18;;;;;;;11.00;5.57;;;;;;;-140.66;100.00;55571.53;5101893;28;20054;-77
2023/06/05 04:03:04;;;;;;;11.40;5.88;;;;;;;-140.66;100.00;55571.53;5102107;28;20031;-77
2023/06/05 04:05:50;;;;;;;9.63;5.35;;;;;;;-140.66;100.00;55571.53;5102329;28;20114;-78
2023/06/05 04:08:35;;;;;;;9.25;5.32;;;;;;;-140.66;100.00;55571.53;5102547;28;20042;-77
2023/06/05 04:11:22;;;;;;;10.35;5.47;;;;;;;-140.66;100.00;55571.53;5117034;28;20054;-77
2023/06/05 04:14:09;;;;;;;11.93;5.75;;;;;;;-140.66;100.00;55571.53;5109577;28;20110;-77
2023/06/05 04:16:55;;;;;;;8.90;5.20;;;;;;;-140.66;100.00;55571.53;5116529;28;20096;-78
2023/06/05 04:19:40;;;;;;;9.43;6.13;;;;;;;-140.66;100.00;55571.53;5103663;28;20085;-77
2023/06/05 04:22:26;;;;;;;30.83;7.30;;;;;;;-140.66;100.00;55571.53;5130603;28;20019;-78
2023/06/05 04:25:13;;;;;;;12.52;5.25;;;;;;;-140.66;100.00;55571.53;5106507;28;20179;-74
2023/06/05 04:27:59;;;;;;;9.57;5.53;;;;;;;-140.66;100.00;55571.53;5108122;28;20028;-73
2023/06/05 04:30:45;;;;;;;8.45;5.72;;;;;;;-140.66;100.00;55571.53;5118662;28;20035;-75
2023/06/05 04:33:31;;;;;;;9.27;6.22;;;;;;;-140.66;100.00;55571.53;5115228;28;20028;-76
2023/06/05 04:36:18;;;;;;;17.88;6.60;;;;;;;-140.66;100.00;55571.53;5100801;28;20031;-76
2023/06/05 04:39:04;;;;;;;11.05;5.85;;;;;;;-140.66;100.00;55571.53;5115373;28;20066;-75
2023/06/05 04:41:50;;;;;;;15.50;6.07;;;;;;;-140.66;100.00;55571.53;5102030;28;20440;-75
2023/06/05 04:44:37;;;;;;;6.95;4.90;;;;;;;-140.66;100.00;55571.53;5115288;28;20038;-76
2023/06/05 04:47:23;;;;;;;9.25;5.53;;;;;;;-140.66;100.00;55571.53;5114628;28;20520;-74
2023/06/05 04:50:10;;;;;;;11.10;5.32;;;;;;;-140.66;100.00;55571.53;5116066;28;20030;-75
2023/06/05 04:52:55;;;;;;;8.40;5.50;;;;;;;-140.66;100.00;55571.53;5115343;28;20488;-74
2023/06/05 04:55:41;;;;;;;7.25;5.18;;;;;;;-140.66;100.00;55571.53;5101801;28;20023;-76
2023/06/05 04:58:27;;;;;;;12.20;4.93;;;;;;;-140.66;100.00;55571.53;5124248;28;20091;-75
2023/06/05 05:01:13;;;;;;;17.60;5.78;;;;;;;-140.66;100.00;55571.53;5102093;28;20106;-75
2023/06/05 05:03:59;;;;;;;10.25;5.35;;;;;;;-140.66;100.00;55571.53;5115751;28;20035;-75
2023/06/05 05:06:47;;;;;;;9.68;5.32;;;;;;;-140.66;100.00;55571.53;5114320;28;20020;-75
2023/06/05 05:09:32;;;;;;;10.98;5.68;;;;;;;-140.66;100.00;55571.53;5115400;28;20042;-75
2023/06/05 05:12:18;;;;;;;8.32;5.30;;;;;;;-140.66;100.00;55571.53;5114578;28;20130;-75
2023/06/05 05:15:05;;;;;;;11.63;5.25;;;;;;;-140.66;100.00;55571.53;5100899;28;20431;-76
2023/06/05 05:17:51;;;;;;;9.63;4.97;;;;;;;-140.66;100.00;55571.53;5100513;28;20062;-75
2023/06/05 05:20:38;;;;;;;9.85;5.40;;;;;;;-140.66;100.00;55571.53;5099858;28;20024;-75
2023/06/05 05:23:25;;;;;;;8.02;5.30;;;;;;;-140.66;100.00;55571.53;5114293;28;20454;-75
2023/06/05 05:26:11;;;;;;;11.30;5.00;;;;;;;-140.66;100.00;55571.53;5114077;28;20081;-76
2023/06/05 05:28:57;;;;;;;9.15;5.40;;;;;;;-140.66;100.00;55571.53;5115574;28;20042;-75
2023/06/05 05:31:43;;;;;;;9.20;5.47;;;;;;;-140.66;100.00;55571.53;5115005;28;20039;-76
2023/06/05 05:34:29;;;;;;;8.68;4.88;;;;;;;-140.66;100.00;55571.53;5114111;28;20348;-75
2023/06/05 05:37:15;;;;;;;8.15;4.72;;;;;;;-140.66;100.00;55571.53;5115541;28;20046;-76
2023/06/05 05:40:00;;;;;;;6.78;5.00;;;;;;;-140.66;100.00;55571.53;5099367;28;20114;-76
2023/06/05 05:42:46;;;;;;;10.90;4.82;;;;;;;-140.66;100.00;55571.53;5115397;28;20024;-75
2023/06/05 05:45:32;;;;;;;8.00;4.10;;;;;;;-140.66;100.00;55571.53;5115398;28;20110;-75
2023/06/05 05:48:18;;;;;;;14.25;4.63;;;;;;;-140.66;100.00;55571.53;5100556;28;20011;-75
2023/06/05 05:51:05;;;;;;;10.02;4.70;;;;;;;-140.66;100.00;55571.53;5114146;28;20092;-75
2023/06/05 05:53:51;;;;;;;9.52;5.13;;;;;;;-140.66;100.00;55571.53;5100585;28;20381;-75
2023/06/05 05:56:37;;;;;;;8.93;5.47;;;;;;;-140.66;100.00;55571.53;5114280;28;20073;-75
2023/06/05 05:59:23;;;;;;;8.65;4.60;;;;;;;-140.66;100.00;55571.53;5100144;28;20070;-75
2023/06/05 06:02:09;;;;;;;9.38;4.97;;;;;;;-140.66;100.00;55571.53;5114851;28;20337;-75
2023/06/05 06:04:55;;;;;;;12.75;5.43;;;;;;;-140.66;100.00;55571.53;5114141;28;20035;-75
2023/06/05 06:07:42;;;;;;;11.15;5.72;;;;;;;-140.66;100.00;55571.53;5114666;28;20373;-75
2023/06/05 06:10:28;;;;;;;9.77;5.18;;;;;;;-140.66;100.00;55571.53;5113701;28;20126;-75
2023/06/05 06:13:14;;;;;;;9.75;5.40;;;;;;;-140.66;100.00;55571.53;5099007;28;20036;-75
2023/06/05 06:16:01;;;;;;;7.97;6.15;;;;;;;-140.66;100.00;55571.53;5114719;28;20031;-75
2023/06/05 06:18:47;;;;;;;10.88;6.85;;;;;;;-140.66;100.00;55571.53;5114364;28;20028;-75
2023/06/05 06:21:33;;;;;;;22.98;6.20;;;;;;;-140.66;100.00;55571.53;5114566;28;20028;-76
2023/06/05 06:24:22;;;;;;;7.15;5.22;;;;;;;-140.66;100.00;55571.53;5099544;28;20019;-75
2023/06/05 06:27:10;;;;;;;12.13;5.57;;;;;;;-140.66;100.00;55571.53;5113467;28;20023;-75
2023/06/05 06:29:56;;;;;;;11.13;5.28;;;;;;;-140.66;100.00;55571.53;5114750;28;20051;-75
2023/06/05 06:32:42;;;;;;;9.32;5.55;;;;;;;-140.66;100.00;55571.53;5099812;28;20034;-75
2023/06/05 06:35:29;;;;;;;8.60;5.57;;;;;;;-140.66;100.00;55571.53;5100159;28;20023;-74
2023/06/05 06:38:14;;;;;;;8.95;5.35;;;;;;;-140.66;100.00;55571.53;5113122;28;20024;-76
2023/06/05 06:41:00;;;;;;;8.02;4.88;;;;;;;-140.66;100.00;55571.53;5113337;28;20027;-75
2023/06/05 06:43:46;;;;;;;10.88;5.32;;;;;;;-140.66;100.00;55571.53;5114574;28;20321;-75
2023/06/05 06:46:32;;;;;;;7.43;5.00;;;;;;;-140.66;100.00;55571.53;5114238;28;20131;-75
2023/06/05 06:49:17;;;;;;;8.10;5.10;;;;;;;-140.66;100.00;55571.53;5098977;28;20417;-75
2023/06/05 06:52:03;;;;;;;12.30;5.55;;;;;;;-140.66;100.00;55571.53;5114131;28;20072;-75
2023/06/05 06:54:49;;;;;;;10.80;5.10;;;;;;;-140.66;100.00;55571.53;5114333;28;20034;-74
2023/06/05 06:57:35;;;;;;;19.42;5.43;;;;;;;-140.66;100.00;55571.53;5113325;28;20059;-75
2023/06/05 07:00:21;;;;;;;9.63;4.70;;;;;;;-140.66;100.00;55571.53;5112971;28;20028;-75
2023/06/05 07:03:08;;;;;;;7.85;4.90;;;;;;;-140.66;100.00;55571.53;5113241;28;20463;-75
2023/06/05 07:05:54;;;;;;;10.70;5.25;;;;;;;-140.66;100.00;55571.53;5113709;28;20452;-75
2023/06/05 07:08:40;;;;;;;9.27;4.88;;;;;;;-140.66;100.00;55571.53;5098301;28;20099;-75
2023/06/05 07:11:26;;;;;;;10.90;6.53;;;;;;;-140.66;100.00;55571.53;5117422;28;20052;-74
2023/06/05 07:14:11;;;;;;;10.65;5.53;;;;;;;-140.66;100.00;55571.53;5118331;28;20440;-75
2023/06/05 07:16:59;;;;;;;11.38;5.05;;;;;;;-140.66;100.00;55571.53;5117000;28;20027;-76
2023/06/05 07:19:45;;;;;;;11.18;4.80;;;;;;;-140.66;100.00;55571.53;5117996;28;20085;-75
2023/06/05 07:22:31;;;;;;;8.77;4.50;;;;;;;-140.66;100.00;55571.53;5118570;28;20047;-74
2023/06/05 07:25:17;;;;;;;7.32;4.18;;;;;;;-140.66;100.00;55571.53;5116675;28;20023;-74
2023/06/05 07:28:08;;;;;;;8.05;4.57;;;;;;;-140.66;100.00;55571.53;5117860;28;20447;-74
2023/06/05 07:30:54;;;;;;;6.38;4.43;;;;;;;-140.66;100.00;55571.53;5102379;28;20106;-74
2023/06/05 07:33:42;;;;;;;7.10;4.15;;;;;;;-140.66;100.00;55571.53;5117581;28;20356;-75
2023/06/05 07:36:29;;;;;;;7.72;4.50;;;;;;;-140.66;100.00;55571.53;5117850;28;20090;-75
2023/06/05 07:39:15;;;;;;;8.75;4.25;;;;;;;-140.66;100.00;55571.53;5116323;28;20031;-75
2023/06/05 07:42:01;;;;;;;7.20;4.35;;;;;;;-140.66;100.00;55571.53;5117600;28;20030;-76
2023/06/05 07:44:48;;;;;;;10.57;4.68;;;;;;;-140.66;100.00;55571.53;5104153;28;20027;-75
2023/06/05 07:47:33;;;;;;;14.52;5.30;;;;;;;-140.66;100.00;55571.53;5116774;28;20024;-76
2023/06/05 07:50:19;;;;;;;9.07;4.35;;;;;;;-140.66;100.00;55571.53;5116828;28;20394;-75
2023/06/05 07:53:05;;;;;;;8.00;4.93;;;;;;;-140.66;100.00;55571.53;5117060;28;20027;-75
2023/06/05 07:55:52;;;;;;;17.05;6.18;;;;;;;-140.66;100.00;55571.53;5116485;28;20020;-72
2023/06/05 07:58:39;;;;;;;14.02;6.53;;;;;;;-140.66;100.00;55571.53;5116448;28;20031;-75
2023/06/05 08:01:25;;;;;;;15.70;6.32;;;;;;;-140.66;100.00;55571.53;5115528;28;20023;-75
2023/06/05 08:04:11;;;;;;;9.73;6.18;;;;;;;-140.66;100.00;55571.53;5101431;28;20461;-75
2023/06/05 08:06:57;;;;;;;16.17;5.65;;;;;;;-140.66;100.00;55571.53;5117392;28;20024;-74
2023/06/05 08:09:42;;;;;;;11.38;5.65;;;;;;;-140.66;100.00;55571.53;5118585;28;20451;-75
2023/06/05 08:12:28;;;;;;;17.33;5.00;;;;;;;-140.66;100.00;55571.53;5122978;28;20047;-75
2023/06/05 08:15:14;;;;;;;8.10;4.70;;;;;;;-140.66;100.00;55571.53;5124096;28;20102;-75
2023/06/05 08:18:00;;;;;;;10.50;4.53;;;;;;;-140.66;100.00;55571.53;5103299;28;20035;-76
2023/06/05 08:20:46;;;;;;;9.25;4.60;;;;;;;-140.66;100.00;55571.53;5119565;28;20023;-76
2023/06/05 08:23:31;;;;;;;7.68;4.47;;;;;;;-140.66;100.00;55571.53;5108941;28;20035;-75
2023/06/05 08:26:21;;;;;;;12.18;4.50;;;;;;;-140.66;100.00;55571.53;5123510;28;20091;-75
2023/06/05 08:29:07;;;;;;;8.75;3.45;;;;;;;-140.66;100.00;55571.53;5122491;28;20023;-75
2023/06/05 08:31:53;;;;;;;7.82;3.50;;;;;;;-140.66;100.00;55571.53;5123448;28;20031;-75
2023/06/05 08:34:39;;;;;;;10.95;3.58;;;;;;;-140.66;100.00;55571.53;5123541;28;20027;-75
2023/06/05 08:37:25;;;;;;;6.82;3.00;;;;;;;-140.66;100.00;55571.53;5120520;28;20023;-75
2023/06/05 08:40:12;;;;;;;13.35;3.08;;;;;;;-140.66;100.00;55571.53;5120657;28;20028;-75
2023/06/05 08:42:59;;;;;;;13.25;2.90;;;;;;;-140.66;100.00;55571.53;5121284;28;20035;-76
2023/06/05 08:45:50;;;;;;;6.63;2.72;;;;;;;-140.66;100.00;55571.53;5106045;28;20036;-75
2023/06/05 08:48:46;;;;;;;8.13;2.40;;;;;;;-140.66;100.00;55571.53;5120843;28;20059;-75
2023/06/05 08:51:32;;;;;;;6.57;2.67;;;;;;;-140.66;100.00;55571.53;5120523;28;20039;-75
2023/06/05 08:54:19;;;;;;;7.22;2.40;;;;;;;-140.66;100.00;55571.53;5102557;28;20023;-74
2023/06/05 08:57:07;;;;;;;8.18;2.35;;;;;;;-140.66;100.00;55571.53;5102302;28;20119;-74
2023/06/05 08:59:52;;;;;;;9.85;2.50;;;;;;;-140.66;100.00;55571.53;5101797;28;20394;-75
2023/06/05 09:02:43;;;;;;;8.30;2.50;;;;;;;-140.66;100.00;55571.53;5116745;28;20122;-76
2023/06/05 09:05:29;;;;;;;8.73;2.38;;;;;;;-140.66;100.00;55571.53;5116638;28;20027;-74
2023/06/05 09:08:16;;;;;;;11.90;2.60;;;;;;;-140.66;100.00;55571.53;5117748;28;20034;-77
2023/06/05 09:11:25;;;;;;;6.70;2.17;;;;;;;-140.66;100.00;55571.53;5111413;28;20075;-74
2023/06/05 09:14:11;;;;;;;5.55;1.80;;;;;;;-140.66;100.00;55571.53;5099890;28;20059;-76
2023/06/05 09:16:58;;;;;;;3.38;1.50;;;;;;;-140.66;100.00;55571.53;5085778;28;20097;-75
2023/06/05 09:19:45;;;;;;;5.05;1.95;;;;;;;-140.66;100.00;55571.53;5099282;28;20039;-75
2023/06/05 09:22:34;;;;;;;4.18;1.70;;;;;;;-140.66;100.00;55571.53;5099084;28;20102;-75
2023/06/05 09:25:21;;;;;;;2.85;1.65;;;;;;;-140.66;100.00;55571.53;5098033;28;20059;-76
2023/06/05 09:28:07;;;;;;;2.15;1.67;;;;;;;-140.66;100.00;55571.53;5096742;28;20035;-75
2023/06/05 09:31:04;;;;;;;3.83;1.80;;;;;;;-140.66;100.00;55571.53;5094452;28;20038;-75
2023/06/05 09:33:56;;;;;;;3.45;2.00;;;;;;;-140.66;100.00;55571.53;5095983;28;20024;-75
2023/06/05 09:36:45;;;;;;;4.22;1.90;;;;;;;-140.66;100.00;55571.53;5082123;28;20132;-76
2023/06/05 09:39:33;;;;;;;4.88;1.88;;;;;;;-140.66;100.00;55571.53;5101063;28;20028;-75
2023/06/05 09:42:31;;;;;;;3.20;1.73;;;;;;;-140.66;100.00;55571.53;5104992;28;20024;-75
2023/06/05 09:45:17;;;;;;;4.20;1.73;;;;;;;-140.66;100.00;55571.53;5106387;28;20059;-76
2023/06/05 09:48:14;;;;;;;3.38;1.90;;;;;;;-140.66;100.00;55571.53;5102216;28;20058;-74
2023/06/05 09:51:11;;;;;;;5.28;2.05;;;;;;;-140.66;100.00;55571.53;5087879;28;20039;-75
2023/06/05 09:53:58;;;;;;;8.27;2.28;;;;;;;-140.66;100.00;55571.53;5105722;28;20406;-74
2023/06/05 09:56:51;;;;;;;4.55;1.73;;;;;;;-140.66;100.00;55571.53;5101150;28;20028;-75
2023/06/05 09:59:50;;;;;;;5.18;2.20;;;;;;;-140.66;100.00;55571.53;5097478;28;20028;-75
2023/06/05 10:02:36;;;;;;;4.65;1.80;;;;;;;-140.66;100.00;55571.53;5095762;28;20059;-76
2023/06/05 10:05:22;;;;;;;3.95;1.90;;;;;;;-140.66;100.00;55571.53;5093552;28;20028;-76
2023/06/05 10:08:08;;;;;;;4.55;1.85;;;;;;;-140.66;100.00;55571.53;5080399;28;20028;-75
2023/06/05 10:10:56;;;;;;;5.65;2.35;;;;;;;-140.66;100.00;55571.53;5100701;28;20047;-75
2023/06/05 10:13:43;;;;;;;16.23;2.38;;;;;;;-140.66;100.00;55571.53;5116880;28;20109;-74
2023/06/05 10:16:29;;;;;;;3.40;1.88;;;;;;;-140.66;100.00;55571.53;5116842;28;20160;-75
2023/06/05 10:19:18;;;;;;;5.22;1.90;;;;;;;-140.66;100.00;55571.53;5121483;28;20101;-75
2023/06/05 10:22:03;;;;;;;4.07;1.95;;;;;;;-140.66;100.00;55571.53;5120203;28;20039;-75
2023/06/05 10:25:00;;;;;;;3.70;2.25;;;;;;;-140.66;100.00;55571.53;5116507;28;20504;-75
2023/06/05 10:28:17;;;;;;;3.75;1.85;;;;;;;-140.66;100.00;55571.53;5119617;28;20119;-75
2023/06/05 10:31:47;;;;;;;4.60;2.03;;;;;;;-140.66;100.00;55571.53;5115637;28;20035;-75
2023/06/05 10:34:53;;;;;;;6.22;2.25;;;;;;;-140.66;100.00;55571.53;5118354;28;20020;-75
2023/06/05 10:37:50;;;;;;;3.83;1.90;;;;;;;-140.66;100.00;55571.53;5103916;28;20027;-75
2023/06/05 10:40:36;;;;;;;3.25;1.98;;;;;;;-140.66;100.00;55571.53;5120619;28;20127;-75
2023/06/05 10:43:28;;;;;;;3.53;1.83;;;;;;;-140.66;100.00;55571.53;5104818;28;20027;-76
2023/06/05 10:46:26;;;;;;;6.53;2.15;;;;;;;-140.66;100.00;55571.53;5108463;28;20027;-75
2023/06/05 10:49:17;;;;;;;4.75;1.85;;;;;;;-140.66;100.00;55571.53;5103905;28;20116;-73
2023/06/05 10:52:03;;;;;;;6.65;2.00;;;;;;;-140.66;100.00;55571.53;5119146;28;20447;-73
2023/06/05 10:54:50;;;;;;;2.65;1.80;;;;;;;-140.66;100.00;55571.53;5103589;28;20039;-73
2023/06/05 10:58:01;;;;;;;7.50;1.80;;;;;;;-140.66;100.00;55571.53;5103966;28;20041;-72
2023/06/05 11:01:15;;;;;;;7.43;2.20;;;;;;;-140.66;100.00;55571.53;5118011;28;20511;-73
2023/06/05 11:04:01;;;;;;;5.03;1.90;;;;;;;-140.66;100.00;55571.53;5120206;28;20039;-72
2023/06/05 11:07:21;;;;;;;9.13;2.55;;;;;;;-140.66;100.00;55571.53;5118094;28;20444;-72
2023/06/05 11:10:21;;;;;;;7.15;2.40;;;;;;;-140.66;100.00;55571.53;5104821;28;20035;-73
2023/06/05 11:13:07;;;;;;;3.55;1.90;;;;;;;-140.66;100.00;55571.53;5119225;28;20055;-72
2023/06/05 11:15:56;;;;;;;17.67;3.10;;;;;;;-140.66;100.00;55571.53;5119049;28;20031;-73
2023/06/05 11:18:42;;;;;;;2.95;1.75;;;;;;;-140.66;100.00;55571.53;5120646;28;20059;-72
2023/06/05 11:22:07;;;;;;;4.43;2.60;;;;;;;-140.66;100.00;55571.53;5120021;28;20470;-71
2023/06/05 11:25:29;;;;;;;3.17;1.83;;;;;;;-140.66;100.00;55571.53;5103448;28;20084;-74
2023/06/05 11:28:44;;;;;;;8.60;2.03;;;;;;;-140.66;100.00;55571.53;5078787;28;20043;-73
2023/06/05 11:31:31;;;;;;;6.72;2.22;;;;;;;-140.66;100.00;55571.53;5103693;28;20051;-72
2023/06/05 11:34:16;;;;;;;3.30;1.70;;;;;;;-140.66;100.00;55571.53;5103116;28;20377;-72
2023/06/05 11:37:17;;;;;;;4.38;2.10;;;;;;;-140.66;100.00;55571.53;5118707;28;20472;-71
2023/06/05 11:40:08;;;;;;;5.60;2.95;;;;;;;-140.66;100.00;55571.53;5117460;28;20532;-72
2023/06/05 11:43:04;;;;;;;3.10;2.20;;;;;;;-140.66;100.00;55571.53;5118181;28;20351;-73
2023/06/05 11:45:52;;;;;;;7.15;1.80;;;;;;;-140.66;100.00;55571.53;5118929;28;20035;-75
2023/06/05 11:48:45;;;;;;;8.75;2.60;;;;;;;-140.66;100.00;55571.53;5103794;28;20470;-73
2023/06/05 11:51:35;;;;;;;5.05;2.00;;;;;;;-140.66;100.00;55571.53;5116891;28;20181;-73
2023/06/05 11:54:29;;;;;;;9.55;2.17;;;;;;;-140.66;100.00;55571.53;5102458;28;20024;-73
2023/06/05 11:57:17;;;;;;;5.72;1.75;;;;;;;-140.66;100.00;55571.53;5117305;28;20016;-72
2023/06/05 12:00:05;;;;;;;7.22;1.98;;;;;;;-140.66;100.00;55571.53;5102172;28;20023;-73
2023/06/05 12:02:51;;;;;;;7.45;2.50;;;;;;;-140.66;100.00;55571.53;5101505;28;20035;-72
2023/06/05 12:05:37;;;;;;;9.23;2.28;;;;;;;-140.66;100.00;55571.53;5102776;28;20093;-73
2023/06/05 12:08:27;;;;;;;4.97;1.80;;;;;;;-140.66;100.00;55571.53;5116856;28;20321;-72
2023/06/05 12:11:25;;;;;;;3.67;2.10;;;;;;;-140.66;100.00;55571.53;5114837;28;20050;-72
2023/06/05 12:14:12;;;;;;;7.15;2.47;;;;;;;-140.66;100.00;55571.53;5101544;28;20027;-72
2023/06/05 12:16:59;;;;;;;5.88;2.90;;;;;;;-140.66;100.00;55571.53;5114809;28;20088;-76
2023/06/05 12:19:52;;;;;;;12.23;2.50;;;;;;;-140.66;100.00;55571.53;5116026;28;20039;-75
2023/06/05 12:22:38;;;;;;;4.20;1.90;;;;;;;-140.66;100.00;55571.53;5115731;27;20168;-75
2023/06/05 12:25:24;;;;;;;6.57;2.10;;;;;;;-140.66;100.00;55571.53;5116287;28;20062;-76
2023/06/05 12:28:20;;;;;;;6.70;2.40;;;;;;;-140.66;100.00;55571.53;5116400;28;20439;-75
2023/06/05 12:31:05;;;;;;;5.47;2.30;;;;;;;-140.66;100.00;55571.53;5099550;28;20027;-75
2023/06/05 12:33:51;;;;;;;4.65;1.90;;;;;;;-140.66;100.00;55571.53;5115566;28;20352;-75
2023/06/05 12:36:43;;;;;;;5.68;2.30;;;;;;;-140.66;100.00;55571.53;5115995;28;20077;-73
2023/06/05 12:39:28;;;;;;;8.82;1.90;;;;;;;-140.66;100.00;55571.53;5099793;28;20020;-74
2023/06/05 12:42:15;;;;;;;4.75;2.00;;;;;;;-140.66;100.00;55571.53;5100859;28;20028;-75